Time;durP1;ratioP1;P1;durP2;ratioP2;P2;SDS_P1;SDS_P2;PMS_P1;PMS_P2;Temp;Humidity;BMP_temperature;BMP_pressure;BME280_temperature;BME280_humidity;BME280_pressure;Samples;Min_cycle;Max_cycle;Signal;HPM_P1;HPM_P2
2020/12/12 00:00:10;;;;;;;29.47;18.77;;;5.50;99.90;;;3.10;100.00;99003.56;5080307;28;20348;-78
2020/12/12 00:02:55;;;;;;;28.37;19.03;;;5.50;99.90;;;3.13;100.00;99008.59;5080167;28;20261;-80
2020/12/12 00:05:44;;;;;;;24.77;17.10;;;5.50;99.90;;;3.13;100.00;99012.84;5099627;28;20209;-80
2020/12/12 00:08:29;;;;;;;29.67;19.17;;;5.50;99.90;;;3.13;100.00;99003.47;5094286;28;20716;-78
2020/12/12 00:11:14;;;;;;;30.50;19.80;;;5.70;99.90;;;3.13;100.00;99007.75;5086223;28;20193;-82
2020/12/12 00:14:00;;;;;;;33.37;21.33;;;5.60;99.90;;;3.14;100.00;99009.41;5079746;28;20309;-79
2020/12/12 00:16:45;;;;;;;28.33;19.60;;;5.60;99.90;;;3.13;100.00;99011.16;5095844;28;20217;-80
2020/12/12 00:19:31;;;;;;;30.83;19.97;;;5.60;99.90;;;3.13;100.00;99011.16;5096603;28;20221;-79
2020/12/12 00:22:16;;;;;;;31.60;20.47;;;5.60;99.90;;;3.12;100.00;99014.56;5095568;28;20210;-80
2020/12/12 00:25:01;;;;;;;30.47;19.50;;;5.60;99.90;;;3.15;100.00;99018.78;5078676;28;20226;-80
2020/12/12 00:27:47;;;;;;;34.37;21.30;;;5.60;99.90;;;3.13;100.00;99016.25;5090162;28;20205;-80
2020/12/12 00:30:33;;;;;;;33.53;20.93;;;5.60;99.90;;;3.14;100.00;99015.41;5096755;28;20196;-79
2020/12/12 00:33:18;;;;;;;31.70;20.70;;;5.60;99.90;;;3.13;100.00;99020.50;5094648;28;20244;-81
2020/12/12 00:36:04;;;;;;;32.90;22.10;;;5.60;99.90;;;3.13;100.00;99018.81;5091870;28;20204;-82
2020/12/12 00:38:49;;;;;;;30.23;19.20;;;5.60;99.90;;;3.13;100.00;99015.41;5100871;28;20714;-83
2020/12/12 00:41:36;;;;;;;32.80;21.33;;;5.60;99.90;;;3.14;100.00;99024.75;5092369;28;20241;-82
2020/12/12 00:44:21;;;;;;;35.23;22.83;;;5.60;99.90;;;3.13;100.00;99020.50;5081041;28;20218;-82
2020/12/12 00:47:07;;;;;;;36.10;23.40;;;5.60;99.90;;;3.14;100.00;99020.50;5089721;28;20281;-80
2020/12/12 00:49:52;;;;;;;35.63;23.37;;;5.60;99.90;;;3.13;100.00;99026.47;5099107;28;20212;-79
2020/12/12 00:52:37;;;;;;;35.90;22.77;;;5.60;99.90;;;3.14;100.00;99034.97;5088660;28;20274;-81
2020/12/12 00:55:24;;;;;;;37.10;24.47;;;5.60;99.90;;;3.14;100.00;99030.72;5088583;28;20259;-81
2020/12/12 00:58:10;;;;;;;37.33;24.33;;;5.60;99.90;;;3.16;100.00;99033.25;5083771;28;20206;-82
2020/12/12 01:00:55;;;;;;;36.60;23.97;;;5.60;99.90;;;3.15;100.00;99036.66;5081018;28;20265;-80
2020/12/12 01:03:42;;;;;;;40.03;23.97;;;5.60;99.90;;;3.16;100.00;99034.06;5094446;28;20218;-80
2020/12/12 01:06:27;;;;;;;40.30;25.13;;;5.60;99.90;;;3.15;100.00;99040.03;5082826;28;20216;-82
2020/12/12 01:09:12;;;;;;;41.30;27.03;;;5.60;99.90;;;3.15;100.00;99034.94;5090756;28;20201;-81
2020/12/12 01:11:58;;;;;;;41.43;26.07;;;5.60;99.90;;;3.18;100.00;99038.31;5096172;28;20202;-81
2020/12/12 01:14:43;;;;;;;41.10;25.27;;;5.60;99.90;;;3.16;100.00;99043.47;5092059;28;20803;-79
2020/12/12 01:17:29;;;;;;;42.87;27.93;;;5.60;99.90;;;3.16;100.00;99040.91;5088460;28;20213;-81
2020/12/12 01:20:15;;;;;;;42.57;25.50;;;5.70;99.90;;;3.16;100.00;99039.19;5103454;28;20216;-80
2020/12/12 01:23:00;;;;;;;44.17;26.57;;;5.60;99.90;;;3.18;100.00;99043.41;5105049;28;20329;-81
2020/12/12 01:25:45;;;;;;;43.27;25.33;;;5.70;99.90;;;3.18;100.00;99040.88;5101920;28;20201;-80
2020/12/12 01:28:30;;;;;;;41.37;25.37;;;5.60;99.90;;;3.20;100.00;99049.31;5107157;28;20262;-80
2020/12/12 01:31:16;;;;;;;41.33;25.10;;;5.60;99.90;;;3.18;100.00;99046.81;5104963;28;20258;-82
2020/12/12 01:34:01;;;;;;;44.87;25.60;;;5.70;99.90;;;3.21;100.00;99051.00;5098871;28;20218;-79
2020/12/12 01:36:48;;;;;;;42.73;27.30;;;5.70;99.90;;;3.20;100.00;99050.16;5105590;28;20193;-83
2020/12/12 01:39:34;;;;;;;41.17;25.53;;;5.70;99.90;;;3.21;100.00;99054.38;5098576;28;20209;-82
2020/12/12 01:42:19;;;;;;;40.77;24.33;;;5.70;99.90;;;3.22;100.00;99055.22;5094541;28;20298;-81
2020/12/12 01:45:05;;;;;;;39.10;24.33;;;5.70;99.90;;;3.22;100.00;99048.41;5080372;28;20291;-81
2020/12/12 01:47:51;;;;;;;42.53;27.27;;;5.70;99.90;;;3.23;100.00;99056.91;5083550;28;20265;-80
2020/12/12 01:50:37;;;;;;;36.00;22.80;;;5.70;99.90;;;3.23;100.00;99054.34;5064564;28;20198;-82
2020/12/12 01:53:26;;;;;;;39.17;24.60;;;5.70;99.90;;;3.23;100.00;99056.91;5072272;28;20338;-79
2020/12/12 01:56:11;;;;;;;40.37;25.03;;;5.70;99.90;;;3.25;100.00;99063.66;5062728;28;20683;-81
2020/12/12 01:58:57;;;;;;;39.93;23.67;;;5.70;99.90;;;3.26;100.00;99064.50;5064488;28;20277;-80
2020/12/12 02:01:46;;;;;;;39.27;23.40;;;5.70;99.90;;;3.24;100.00;99061.97;5059882;28;20266;-79
2020/12/12 02:04:37;;;;;;;38.10;23.37;;;5.70;99.90;;;3.28;100.00;99065.31;5077497;28;20221;-78
2020/12/12 02:07:24;;;;;;;38.43;22.60;;;5.70;99.90;;;3.26;100.00;99062.81;5071195;28;20197;-81
2020/12/12 02:10:10;;;;;;;39.07;24.93;;;5.70;99.90;;;3.28;100.00;99068.69;5078748;28;20260;-80
2020/12/12 02:12:56;;;;;;;35.13;21.97;;;5.70;99.90;;;3.27;100.00;99066.19;5064549;28;20670;-79
2020/12/12 02:15:42;;;;;;;39.07;24.07;;;5.70;99.90;;;3.28;100.00;99065.31;5080246;28;20213;-81
2020/12/12 02:18:27;;;;;;;37.33;23.47;;;5.70;99.90;;;3.29;100.00;99065.28;5064214;28;20553;-80
2020/12/12 02:21:13;;;;;;;38.67;23.77;;;5.70;99.90;;;3.30;100.00;99061.00;5078417;28;20642;-80
2020/12/12 02:23:59;;;;;;;35.20;23.67;;;5.70;99.90;;;3.30;100.00;99063.56;5059638;28;20243;-81
2020/12/12 02:26:44;;;;;;;33.97;21.83;;;5.80;99.90;;;3.30;100.00;99064.38;5061586;28;20206;-80
2020/12/12 02:29:40;;;;;;;35.73;22.20;;;5.70;99.90;;;3.30;100.00;99066.09;5076022;28;20245;-79
2020/12/12 02:32:25;;;;;;;35.33;21.43;;;5.70;99.90;;;3.31;100.00;99057.56;5063130;28;20218;-81
2020/12/12 02:35:11;;;;;;;38.30;21.47;;;5.80;99.90;;;3.31;100.00;99067.78;5061595;28;20616;-80
2020/12/12 02:37:56;;;;;;;36.60;21.57;;;5.70;99.90;;;3.31;100.00;99065.25;5078108;28;20217;-81
2020/12/12 02:40:42;;;;;;;39.93;23.93;;;5.80;99.90;;;3.32;100.00;99070.31;5077512;28;20265;-80
2020/12/12 02:43:28;;;;;;;29.73;21.07;;;5.90;99.90;;;3.33;100.00;99071.13;5078958;28;20233;-79
2020/12/12 02:46:13;;;;;;;34.33;24.00;;;5.80;99.90;;;3.36;100.00;99072.78;5068165;28;20275;-81
2020/12/12 02:48:59;;;;;;;37.57;22.67;;;5.80;99.90;;;3.35;100.00;99074.47;5086394;28;20210;-80
2020/12/12 02:51:45;;;;;;;39.73;24.37;;;5.70;99.90;;;3.35;100.00;99077.03;5081769;28;20198;-80
2020/12/12 02:54:31;;;;;;;36.20;21.73;;;5.80;99.90;;;3.38;100.00;99073.56;5092841;28;20769;-80
2020/12/12 02:57:17;;;;;;;37.07;22.03;;;5.80;99.90;;;3.37;100.00;99080.41;5098358;28;20667;-78
2020/12/12 03:00:08;;;;;;;37.53;22.07;;;5.80;99.90;;;3.40;100.00;99076.97;5090883;28;20209;-81
2020/12/12 03:02:53;;;;;;;35.50;21.43;;;5.90;99.90;;;3.41;100.00;99082.03;5098565;28;20311;-79
2020/12/12 03:05:38;;;;;;;38.67;23.87;;;5.80;99.90;;;3.42;100.00;99083.69;5100776;28;20573;-82
2020/12/12 03:08:25;;;;;;;36.90;21.83;;;5.80;99.90;;;3.42;100.00;99080.31;5088584;28;20314;-79
2020/12/12 03:11:10;;;;;;;37.17;22.83;;;5.80;99.90;;;3.44;100.00;99088.75;5085136;28;20683;-81
2020/12/12 03:13:57;;;;;;;37.27;22.37;;;5.80;99.90;;;3.44;100.00;99087.06;5081310;28;20723;-81
2020/12/12 03:16:42;;;;;;;40.80;24.67;;;5.80;99.90;;;3.44;100.00;99094.72;5086951;28;20205;-82
2020/12/12 03:19:27;;;;;;;40.60;23.23;;;5.80;99.90;;;3.46;100.00;99092.13;5092234;28;20205;-79
2020/12/12 03:22:13;;;;;;;37.40;23.43;;;5.80;99.90;;;3.46;100.00;99092.97;5086212;28;20357;-80
2020/12/12 03:24:58;;;;;;;33.90;21.23;;;5.90;99.90;;;3.47;100.00;99089.53;5084738;28;20240;-80
2020/12/12 03:27:43;;;;;;;39.17;23.70;;;5.90;99.90;;;3.47;100.00;99092.09;5092904;28;20200;-80
2020/12/12 03:30:29;;;;;;;35.53;23.47;;;5.90;99.90;;;3.49;100.00;99097.16;5093195;28;20780;-81
2020/12/12 03:33:14;;;;;;;35.40;22.13;;;5.90;99.90;;;3.51;100.00;99103.06;5093935;28;20725;-80
2020/12/12 03:35:59;;;;;;;37.60;22.13;;;5.90;99.90;;;3.51;100.00;99110.75;5099683;28;20200;-80
2020/12/12 03:38:45;;;;;;;39.70;22.93;;;5.90;99.90;;;3.53;100.00;99097.91;5098267;28;20204;-81
2020/12/12 03:41:30;;;;;;;39.67;21.70;;;5.90;99.90;;;3.54;100.00;99109.84;5092767;28;20232;-81
2020/12/12 03:44:15;;;;;;;38.73;23.27;;;5.90;99.90;;;3.56;100.00;99098.69;5089807;28;20218;-80
2020/12/12 03:47:01;;;;;;;41.07;23.07;;;5.90;99.90;;;3.55;100.00;99103.84;5098352;28;20289;-80
2020/12/12 03:49:47;;;;;;;40.80;22.53;;;5.90;99.90;;;3.55;100.00;99103.84;5083746;28;20190;-79
2020/12/12 03:52:32;;;;;;;34.47;21.17;;;6.00;99.90;;;3.58;100.00;99106.34;5095536;28;20209;-80
2020/12/12 03:55:17;;;;;;;37.43;21.50;;;6.00;99.90;;;3.58;100.00;99111.44;5082160;28;20205;-80
2020/12/12 03:58:02;;;;;;;33.83;22.93;;;6.00;99.90;;;3.58;100.00;99111.44;5098481;28;20204;-79
2020/12/12 04:00:48;;;;;;;38.13;22.37;;;6.00;99.90;;;3.60;100.00;99113.09;5096614;28;20241;-80
2020/12/12 04:03:34;;;;;;;34.53;20.53;;;6.00;99.90;;;3.62;100.00;99118.16;5090158;28;20610;-80
2020/12/12 04:06:21;;;;;;;36.73;20.83;;;6.00;99.90;;;3.61;100.00;99116.47;5092455;28;20340;-81
2020/12/12 04:09:06;;;;;;;33.50;20.47;;;6.00;99.90;;;3.64;100.00;99111.28;5093136;28;20389;-81
2020/12/12 04:11:51;;;;;;;33.33;19.70;;;5.90;99.90;;;3.65;100.00;99118.91;5081263;28;20201;-79
2020/12/12 04:14:37;;;;;;;33.37;20.40;;;6.00;99.90;;;3.67;100.00;99118.88;5085709;28;20260;-80
2020/12/12 04:17:22;;;;;;;33.97;20.67;;;6.00;99.90;;;3.69;100.00;99122.22;5107277;28;20217;-80
2020/12/12 04:20:08;;;;;;;32.70;20.83;;;6.00;99.90;;;3.69;100.00;99123.09;5102103;28;20197;-78
2020/12/12 04:22:54;;;;;;;36.23;21.00;;;6.00;99.90;;;3.69;100.00;99124.78;5105512;28;20243;-79
2020/12/12 04:25:39;;;;;;;35.87;20.77;;;6.10;99.90;;;3.71;100.00;99122.22;5099081;28;20190;-78
2020/12/12 04:28:24;;;;;;;34.10;19.73;;;6.10;99.90;;;3.72;100.00;99126.44;5110662;28;20721;-78
2020/12/12 04:31:10;;;;;;;33.87;21.13;;;6.10;99.90;;;3.73;100.00;99130.69;5085419;28;20217;-80
2020/12/12 04:33:55;;;;;;;34.03;21.40;;;6.00;99.90;;;3.74;100.00;99127.25;5092707;28;20225;-79
2020/12/12 04:36:41;;;;;;;32.90;20.43;;;6.10;99.90;;;3.76;100.00;99133.97;5097652;28;20251;-79
2020/12/12 04:39:26;;;;;;;33.33;20.20;;;6.10;99.90;;;3.76;100.00;99133.97;5096526;28;20946;-80
2020/12/12 04:42:16;;;;;;;33.83;20.03;;;6.30;99.90;;;3.76;100.00;99131.44;5083137;28;20240;-78
2020/12/12 04:45:03;;;;;;;34.67;20.90;;;6.10;99.90;;;3.78;100.00;99133.94;5087481;28;20233;-80
2020/12/12 04:47:50;;;;;;;31.73;20.63;;;6.10;99.90;;;3.79;100.00;99138.19;5078575;28;20244;-78
2020/12/12 04:50:36;;;;;;;33.37;20.40;;;6.10;99.90;;;3.81;100.00;99142.41;5078161;28;20566;-79
2020/12/12 04:53:24;;;;;;;28.43;19.17;;;6.20;99.90;;;3.83;100.00;99144.91;5078030;28;20225;-80
2020/12/12 04:56:22;;;;;;;31.93;21.27;;;6.20;99.90;;;3.88;100.00;99145.63;5068426;28;20282;-79
2020/12/12 04:59:08;;;;;;;34.03;21.07;;;6.20;99.90;;;3.92;100.00;99146.41;5081924;28;20280;-79
2020/12/12 05:01:54;;;;;;;34.93;20.97;;;6.20;99.90;;;3.91;100.00;99149.81;5078296;28;20226;-79
2020/12/12 05:04:40;;;;;;;33.67;21.87;;;6.20;99.90;;;3.94;100.00;99148.06;5065741;28;20269;-80
2020/12/12 05:07:26;;;;;;;36.67;21.03;;;6.20;99.90;;;4.00;100.00;99149.59;5062935;28;20202;-79
2020/12/12 05:10:12;;;;;;;41.67;23.33;;;6.20;99.90;;;4.04;100.00;99157.16;5064150;28;20273;-80
2020/12/12 05:12:57;;;;;;;39.13;22.67;;;6.20;99.90;;;4.10;100.00;99161.25;5074285;28;20347;-80
2020/12/12 05:15:42;;;;;;;38.30;22.50;;;6.30;99.90;;;4.09;100.00;99164.72;5062324;28;20214;-81
2020/12/12 05:18:28;;;;;;;35.87;21.30;;;6.30;99.90;;;4.10;100.00;99163.00;5077984;28;20201;-79
2020/12/12 05:21:13;;;;;;;35.47;20.83;;;6.30;99.90;;;4.07;100.00;99166.47;5080425;28;20333;-81
2020/12/12 05:23:59;;;;;;;38.97;20.60;;;6.30;99.90;;;4.08;100.00;99162.19;5066520;28;20241;-81
2020/12/12 05:26:47;;;;;;;37.63;20.10;;;6.30;99.90;;;4.11;100.00;99167.25;5068169;28;20202;-80
2020/12/12 05:29:32;;;;;;;38.53;22.40;;;6.30;99.90;;;4.10;100.00;99174.06;5061768;28;20936;-79
2020/12/12 05:32:17;;;;;;;40.73;21.87;;;6.30;99.90;;;4.09;100.00;99168.97;5078580;28;20897;-80
2020/12/12 05:35:05;;;;;;;37.90;22.00;;;6.40;99.90;;;4.07;100.00;99175.88;5079152;28;20233;-80
2020/12/12 05:37:51;;;;;;;39.37;21.00;;;6.30;99.90;;;4.12;100.00;99176.56;5066924;28;20210;-79
2020/12/12 05:40:38;;;;;;;33.67;19.17;;;6.40;99.90;;;4.11;100.00;99178.31;5073122;28;20218;-79
2020/12/12 05:43:34;;;;;;;37.70;21.27;;;6.40;99.90;;;4.12;100.00;99174.88;5074275;28;20445;-82
2020/12/12 05:46:22;;;;;;;39.47;21.20;;;6.40;99.90;;;4.14;100.00;99173.09;5081737;28;20206;-80
2020/12/12 05:49:07;;;;;;;40.60;21.60;;;6.40;99.90;;;4.18;100.00;99179.00;5080784;28;20205;-80
2020/12/12 05:51:53;;;;;;;39.80;21.73;;;6.40;99.90;;;4.16;100.00;99183.28;5074550;28;20202;-80
2020/12/12 05:54:39;;;;;;;46.47;21.63;;;6.40;99.90;;;4.17;100.00;99197.78;5081207;28;20602;-81
2020/12/12 05:57:25;;;;;;;34.80;19.67;;;6.50;99.90;;;4.17;100.00;99195.22;5077282;28;20202;-77
2020/12/12 06:00:11;;;;;;;41.67;22.70;;;6.50;99.90;;;4.20;100.00;99192.59;5080746;28;20339;-80
2020/12/12 06:03:03;;;;;;;38.67;21.77;;;6.50;99.90;;;4.19;100.00;99196.88;5079896;28;20213;-79
2020/12/12 06:05:53;;;;;;;39.70;20.83;;;6.50;99.90;;;4.20;100.00;99198.53;5081373;28;20317;-79
2020/12/12 06:08:48;;;;;;;37.50;19.80;;;6.50;99.90;;;4.25;100.00;99208.66;5076598;28;20564;-80
2020/12/12 06:11:39;;;;;;;37.60;20.40;;;6.50;99.90;;;4.33;100.00;99208.47;5074344;28;20221;-79
2020/12/12 06:14:30;;;;;;;32.70;19.03;;;6.50;99.90;;;4.36;100.00;99222.00;5076108;28;20609;-79
2020/12/12 06:17:35;;;;;;;37.00;21.53;;;6.50;99.90;;;4.36;100.00;99224.56;5080708;28;20554;-80
2020/12/12 06:20:21;;;;;;;36.33;21.30;;;6.60;99.90;;;4.35;100.00;99222.06;5078638;28;20221;-79
2020/12/12 06:23:06;;;;;;;39.30;20.57;;;6.50;99.90;;;4.34;100.00;99222.94;5080808;28;20650;-80
2020/12/12 06:25:51;;;;;;;36.03;19.23;;;6.50;99.90;;;4.32;100.00;99219.59;5077566;28;20252;-80
2020/12/12 06:28:47;;;;;;;35.13;21.13;;;6.60;99.90;;;4.43;100.00;99230.38;5078861;28;20241;-79
2020/12/12 06:31:36;;;;;;;33.43;19.37;;;6.60;99.90;;;4.50;100.00;99229.34;5079415;28;20558;-80
2020/12/12 06:34:42;;;;;;;43.53;21.77;;;6.60;99.90;;;4.55;100.00;99234.34;5078898;28;20616;-80
2020/12/12 06:37:32;;;;;;;44.23;20.53;;;6.60;99.90;;;4.56;100.00;99241.13;5075301;28;20205;-79
2020/12/12 06:40:17;;;;;;;44.40;23.37;;;6.60;99.90;;;4.63;100.00;99244.38;5076527;28;20234;-80
2020/12/12 06:43:03;;;;;;;50.77;25.93;;;6.70;99.90;;;4.65;100.00;99243.47;5073680;28;20261;-79
2020/12/12 06:45:49;;;;;;;50.77;23.77;;;6.70;99.90;;;4.65;100.00;99246.03;5078749;28;20205;-81
2020/12/12 06:48:35;;;;;;;50.83;25.27;;;6.70;99.90;;;4.66;100.00;99237.44;5080805;28;20693;-80
2020/12/12 06:51:36;;;;;;;48.80;24.83;;;6.70;99.90;;;4.66;100.00;99250.25;5069304;28;20206;-81
2020/12/12 06:54:22;;;;;;;54.60;25.43;;;6.70;99.90;;;4.68;100.00;99245.09;5078262;28;20237;-80
2020/12/12 06:57:33;;;;;;;49.80;23.73;;;7.00;99.90;;;4.66;100.00;99255.38;5076014;28;20673;-79
2020/12/12 07:00:21;;;;;;;58.40;25.83;;;6.80;99.90;;;4.68;100.00;99257.88;5077281;28;20553;-78
2020/12/12 07:03:08;;;;;;;48.33;23.13;;;6.80;99.90;;;4.70;100.00;99271.50;5079613;28;20580;-81
2020/12/12 07:06:06;;;;;;;48.77;24.70;;;6.80;99.90;;;4.73;100.00;99274.00;5076006;28;20675;-81
2020/12/12 07:08:52;;;;;;;62.03;24.70;;;6.80;99.90;;;4.76;100.00;99268.78;5087615;28;20194;-78
2020/12/12 07:11:37;;;;;;;64.07;26.73;;;6.80;99.90;;;4.80;100.00;99264.41;5087251;28;20211;-80
2020/12/12 07:14:23;;;;;;;52.83;23.20;;;6.90;99.90;;;4.83;100.00;99274.59;5087560;28;20226;-80
2020/12/12 07:17:08;;;;;;;65.23;25.07;;;6.90;99.90;;;4.83;100.00;99279.72;5079173;28;20260;-81
2020/12/12 07:19:53;;;;;;;61.57;27.07;;;6.90;99.90;;;4.83;100.00;99285.66;5077458;28;20197;-80
2020/12/12 07:22:39;;;;;;;63.47;28.97;;;6.90;99.90;;;4.86;100.00;99285.59;5077656;28;20617;-78
2020/12/12 07:25:25;;;;;;;66.63;26.97;;;7.00;99.90;;;4.88;100.00;99288.09;5073740;28;20210;-79
2020/12/12 07:28:10;;;;;;;59.33;25.10;;;7.00;99.90;;;4.88;100.00;99285.53;5077427;28;20201;-79
2020/12/12 07:30:55;;;;;;;58.87;25.57;;;7.00;99.90;;;4.89;100.00;99295.75;5074241;28;20772;-80
2020/12/12 07:33:48;;;;;;;63.57;24.17;;;7.00;99.90;;;4.90;100.00;99296.56;5076725;28;20222;-81
2020/12/12 07:36:33;;;;;;;65.40;27.50;;;7.00;99.90;;;4.91;100.00;99299.09;5077340;28;20194;-79
2020/12/12 07:39:18;;;;;;;62.00;26.63;;;7.00;99.90;;;4.90;100.00;99296.56;5069293;28;20218;-78
2020/12/12 07:42:07;;;;;;;60.33;25.20;;;7.10;99.90;;;4.89;100.00;99310.28;5061794;28;20300;-81
2020/12/12 07:44:57;;;;;;;57.33;25.87;;;7.10;99.90;;;4.90;100.00;99317.06;5076477;28;20242;-80
2020/12/12 07:47:42;;;;;;;60.23;26.27;;;7.10;99.90;;;4.90;100.00;99323.06;5076338;28;20218;-80
2020/12/12 07:50:28;;;;;;;50.47;22.50;;;7.10;99.90;;;4.90;100.00;99329.88;5071167;28;20668;-81
2020/12/12 07:53:15;;;;;;;59.20;26.80;;;7.10;99.90;;;4.87;100.00;99332.53;5064455;28;20222;-81
2020/12/12 07:56:01;;;;;;;65.10;26.20;;;7.10;99.90;;;4.86;100.00;99336.81;5055333;28;20214;-79
2020/12/12 07:59:00;;;;;;;56.90;25.60;;;7.10;99.90;;;4.86;100.00;99347.06;5067684;28;20213;-79
2020/12/12 08:01:46;;;;;;;55.47;24.40;;;7.20;99.90;;;4.88;100.00;99347.88;5067051;28;20211;-80
2020/12/12 08:04:32;;;;;;;58.33;25.43;;;7.20;99.90;;;4.88;100.00;99347.88;5055930;28;20710;-79
2020/12/12 08:07:19;;;;;;;61.63;22.37;;;7.20;99.90;;;4.88;100.00;99359.84;5073067;28;20872;-79
2020/12/12 08:10:58;;;;;;;66.17;26.27;;;7.20;99.90;;;4.87;100.00;99363.28;5064114;28;20198;-80
2020/12/12 08:13:44;;;;;;;67.80;24.57;;;7.20;99.90;;;4.90;100.00;99369.19;5058072;28;20217;-80
2020/12/12 08:16:37;;;;;;;65.13;25.67;;;7.20;99.90;;;4.91;100.00;99370.84;5068051;28;20215;-79
2020/12/12 08:19:22;;;;;;;52.67;24.77;;;7.20;99.90;;;4.93;100.00;99378.47;5057937;28;20409;-80
2020/12/12 08:22:16;;;;;;;62.90;25.80;;;7.20;99.90;;;4.95;100.00;99375.91;5067309;28;20240;-79
2020/12/12 08:25:06;;;;;;;61.93;26.13;;;7.20;99.90;;;4.96;100.00;99381.00;5078121;28;20230;-82
2020/12/12 08:27:51;;;;;;;59.90;23.93;;;7.20;99.90;;;5.00;100.00;99384.31;5057960;28;20206;-80
2020/12/12 08:30:37;;;;;;;68.30;25.97;;;7.20;99.90;;;5.03;100.00;99391.91;5074166;28;20202;-80
2020/12/12 08:33:25;;;;;;;61.73;24.53;;;7.20;99.90;;;5.05;100.00;99388.44;5069083;28;20230;-80
2020/12/12 08:36:15;;;;;;;55.53;25.03;;;7.30;99.90;;;5.07;100.00;99388.41;5074195;28;20217;-80
2020/12/12 08:39:05;;;;;;;70.67;26.37;;;7.30;99.90;;;5.09;100.00;99394.31;5062266;28;20205;-79
2020/12/12 08:41:50;;;;;;;72.60;25.80;;;7.30;99.90;;;5.12;100.00;99398.53;5068781;28;20231;-79
2020/12/12 08:44:35;;;;;;;74.87;30.60;;;7.30;99.90;;;5.14;100.00;99402.75;5062641;28;20296;-81
2020/12/12 08:47:21;;;;;;;68.37;26.23;;;7.30;99.90;;;5.18;100.00;99409.47;5079285;28;20220;-81
2020/12/12 08:50:07;;;;;;;69.63;24.40;;;7.40;99.90;;;5.22;100.00;99416.19;5098976;28;20209;-79
2020/12/12 08:52:52;;;;;;;77.07;28.30;;;7.40;99.90;;;5.25;100.00;99421.22;5085448;28;20204;-80
2020/12/12 08:55:37;;;;;;;71.70;26.83;;;7.40;99.90;;;5.30;100.00;99420.25;5098017;28;20224;-80
2020/12/12 08:58:36;;;;;;;75.10;28.73;;;7.40;99.90;;;5.32;100.00;99416.78;5083659;28;20701;-80
2020/12/12 09:01:30;;;;;;;69.37;26.37;;;7.40;99.90;;;5.36;100.00;99427.78;5096670;28;20215;-80
2020/12/12 09:04:20;;;;;;;82.47;28.83;;;7.50;99.90;;;5.39;100.00;99425.16;5091135;28;20303;-79
2020/12/12 09:07:06;;;;;;;69.33;26.40;;;7.50;99.90;;;5.40;100.00;99427.69;5101030;28;20339;-80
2020/12/12 09:10:08;;;;;;;66.23;24.83;;;7.50;99.90;;;5.43;100.00;99431.88;5101010;28;20220;-80
2020/12/12 09:12:53;;;;;;;75.10;26.87;;;7.50;99.90;;;5.47;100.00;99430.09;5107963;28;20246;-78
2020/12/12 09:15:38;;;;;;;70.07;27.27;;;7.50;99.90;;;5.41;100.00;99443.91;5101157;28;20198;-81
2020/12/12 09:18:23;;;;;;;49.60;23.73;;;7.60;99.90;;;5.29;100.00;99449.38;5106284;28;20214;-80
2020/12/12 09:21:09;;;;;;;54.93;22.63;;;7.60;99.90;;;5.29;100.00;99463.03;5106637;28;20227;-81
2020/12/12 09:23:55;;;;;;;70.77;25.53;;;7.60;99.90;;;5.43;100.00;99458.38;5112344;28;20225;-80
2020/12/12 09:26:40;;;;;;;50.43;24.50;;;7.60;99.90;;;5.35;100.00;99465.41;5111489;28;20422;-79
2020/12/12 09:29:27;;;;;;;51.33;23.27;;;7.60;99.90;;;5.28;100.00;99466.44;5100087;28;20228;-80
2020/12/12 09:32:12;;;;;;;55.37;24.70;;;7.70;99.90;;;5.22;100.00;99477.69;5111743;28;20220;-79
2020/12/12 09:34:58;;;;;;;52.83;23.23;;;7.70;99.90;;;5.25;100.00;99477.63;5110988;28;20243;-79
2020/12/12 09:37:43;;;;;;;55.13;22.47;;;7.70;99.90;;;5.23;100.00;99481.13;5090635;28;20214;-79
2020/12/12 09:40:29;;;;;;;52.57;21.60;;;7.70;99.90;;;5.25;100.00;99482.75;5110582;28;20208;-79
2020/12/12 09:43:16;;;;;;;56.23;23.23;;;7.70;99.90;;;5.27;100.00;99481.00;5103823;28;20309;-79
2020/12/12 09:46:02;;;;;;;54.57;22.63;;;7.70;99.90;;;5.25;100.00;99490.44;5115302;28;20220;-79
2020/12/12 09:48:49;;;;;;;52.77;22.23;;;7.70;99.90;;;5.25;100.00;99482.75;5112478;28;20270;-78
2020/12/12 09:51:34;;;;;;;59.13;24.33;;;7.80;99.90;;;5.31;100.00;99494.56;5099325;28;20225;-79
2020/12/12 09:54:19;;;;;;;49.50;22.97;;;7.80;99.90;;;5.35;100.00;99491.06;5106273;28;20229;-79
2020/12/12 09:57:05;;;;;;;54.80;23.97;;;7.80;99.90;;;5.42;100.00;99492.59;5095868;28;20283;-79
2020/12/12 09:59:50;;;;;;;63.33;24.43;;;7.80;99.90;;;5.52;100.00;99493.19;5087395;28;20209;-79
2020/12/12 10:02:35;;;;;;;63.00;23.90;;;7.80;99.90;;;5.54;100.00;99501.69;5085271;28;20887;-78
2020/12/12 10:05:21;;;;;;;59.67;23.70;;;7.80;99.90;;;5.56;100.00;99507.59;5084245;28;20341;-80
2020/12/12 10:08:06;;;;;;;59.23;24.80;;;7.80;99.90;;;5.67;100.00;99502.22;5093234;28;20209;-79
2020/12/12 10:10:52;;;;;;;60.60;23.33;;;7.90;99.90;;;5.85;100.00;99498.31;5093845;28;20276;-82
2020/12/12 10:13:39;;;;;;;61.07;25.50;;;7.90;99.90;;;5.92;100.00;99511.78;5092992;28;20226;-80
2020/12/12 10:16:24;;;;;;;56.17;25.87;;;7.90;99.90;;;5.87;100.00;99506.78;5082844;28;20205;-81
2020/12/12 10:19:09;;;;;;;57.53;23.50;;;8.00;99.90;;;5.95;100.00;99502.28;5091495;28;20569;-79
2020/12/12 10:21:54;;;;;;;57.17;26.93;;;8.00;99.90;;;6.01;100.00;99508.16;5095076;28;20230;-80
2020/12/12 10:24:40;;;;;;;71.73;27.17;;;8.00;99.90;;;6.01;100.00;99514.16;5099286;28;20298;-81
2020/12/12 10:27:25;;;;;;;61.70;28.03;;;8.00;99.90;;;6.05;100.00;99509.75;5080107;28;20214;-81
2020/12/12 10:30:14;;;;;;;66.00;28.43;;;8.10;99.90;;;6.07;100.00;99518.28;5090871;28;20209;-79
2020/12/12 10:33:00;;;;;;;74.93;28.17;;;8.10;99.90;;;6.09;100.00;99521.63;5089090;28;20206;-80
2020/12/12 10:35:45;;;;;;;66.40;28.23;;;8.10;99.90;;;6.04;100.00;99528.59;5086867;28;20205;-79
2020/12/12 10:38:34;;;;;;;64.60;28.20;;;8.10;99.90;;;6.06;100.00;99524.28;5082272;28;20205;-79
2020/12/12 10:41:20;;;;;;;59.70;27.83;;;8.00;99.90;;;6.08;100.00;99525.06;5086277;28;20214;-80
2020/12/12 10:44:05;;;;;;;60.20;28.43;;;8.30;99.90;;;6.09;100.00;99529.34;5087146;28;20730;-80
2020/12/12 10:46:51;;;;;;;59.50;27.83;;;8.40;99.90;;;6.10;100.00;99533.59;5084458;28;20232;-80
2020/12/12 10:49:39;;;;;;;55.07;27.17;;;8.30;99.90;;;6.11;100.00;99530.13;5078920;28;20210;-79
2020/12/12 10:52:25;;;;;;;53.23;27.83;;;8.30;99.90;;;6.12;100.00;99536.94;5086968;28;20202;-80
2020/12/12 10:55:10;;;;;;;56.70;28.27;;;8.30;99.90;;;6.17;100.00;99536.81;5078279;28;20294;-80
2020/12/12 10:57:55;;;;;;;59.23;28.17;;;8.40;99.90;;;6.21;100.00;99541.81;5088192;28;20230;-82
2020/12/12 11:00:43;;;;;;;51.20;26.40;;;8.40;99.90;;;6.21;100.00;99541.81;5093080;28;20281;-82
2020/12/12 11:03:29;;;;;;;56.07;26.83;;;8.40;99.90;;;6.22;100.00;99551.22;5092915;28;20707;-80
2020/12/12 11:06:14;;;;;;;58.77;25.60;;;8.40;99.90;;;6.22;100.00;99546.06;5088083;28;20609;-80
2020/12/12 11:08:59;;;;;;;49.60;25.03;;;8.50;99.90;;;6.23;100.00;99550.34;5091480;28;20583;-80
2020/12/12 11:11:45;;;;;;;53.27;27.87;;;8.50;99.90;;;6.27;100.00;99544.19;5089036;28;20201;-81
2020/12/12 11:14:32;;;;;;;48.27;27.00;;;8.50;99.90;;;6.28;100.00;99543.31;5095212;28;20229;-80
2020/12/12 11:17:17;;;;;;;45.87;24.97;;;8.50;99.90;;;6.37;100.00;99557.63;5085414;28;20214;-81
2020/12/12 11:20:04;;;;;;;43.77;23.70;;;8.50;99.90;;;6.38;100.00;99553.31;5092467;28;20267;-79
2020/12/12 11:22:48;;;;;;;45.83;24.60;;;8.60;99.90;;;6.38;100.00;99558.47;5078285;28;20226;-81
2020/12/12 11:25:34;;;;;;;48.80;25.70;;;8.60;99.90;;;6.39;100.00;99560.16;5093266;28;20789;-80
2020/12/12 11:28:19;;;;;;;48.57;26.77;;;8.60;99.90;;;6.39;100.00;99557.59;5095283;28;20216;-80
2020/12/12 11:31:04;;;;;;;41.33;24.53;;;8.60;99.90;;;6.42;100.00;99554.94;5087913;28;20576;-80
2020/12/12 11:33:53;;;;;;;40.07;24.10;;;8.70;99.90;;;6.42;100.00;99560.94;5091207;28;20222;-80